SCBA/BBA METAR and TAF weather

Enter ICAO airport designator
Station Type Date Time Source
SCBA METAR 2019/12/07 15:00 UTC NOAA

SCBA 071500Z 30022KT 9999 FEW100 BKN200 17/06 Q1015


Station Type Date Time Source
SCBA Decoded METAR 2019/12/07 15:00 UTC NOAA

Balmaceda, Chile (SCBA) 45-55S 071-41W 520M
Dec 07, 2019 - 10:00 AM EST / 2019.12.07 1500 UTC
Wind: from the WNW (300 degrees) at 25 MPH (22 KT):0
Visibility: greater than 7 mile(s):0
Sky conditions: mostly cloudy
Temperature: 62 F (17 C)
Dew Point: 42 F (6 C)
Relative Humidity: 48%
Pressure (altimeter): 29.97 in. Hg (1015 hPa)
ob: SCBA 071500Z 30022KT 9999 FEW100 BKN200 17/06 Q1015
cycle: 15

Station Type Date Time Source
SCBA TAF 2019/12/07 12:03 UTC NOAA

TAF SCBA 071016Z 0712/0812 30012KT CAVOK TX20/0719Z TN07/0809Z
BECMG 0715/0717 30023KT
BECMG 0723/0801 30010KT
BECMG 0806/0808 SCT035

Example: see airport list